sensor_id;sensor_type;location;lat;lon;timestamp;temperature;humidity
1878;DHT22;939;51.426;6.972;2023-07-28T12:03:34;21.30;99.90
1878;DHT22;939;51.426;6.972;2023-07-28T12:06:07;21.20;99.90
1878;DHT22;939;51.426;6.972;2023-07-28T12:09:05;21.20;99.90
1878;DHT22;939;51.426;6.972;2023-07-28T12:11:34;21.20;99.90
1878;DHT22;939;51.426;6.972;2023-07-28T12:14:03;21.40;99.90
1878;DHT22;939;51.426;6.972;2023-07-28T12:16:47;21.60;99.90
1878;DHT22;939;51.426;6.972;2023-07-28T12:19:15;21.90;99.90
1878;DHT22;939;51.426;6.972;2023-07-28T12:21:42;22.00;99.90
1878;DHT22;939;51.426;6.972;2023-07-28T12:24:09;22.20;99.90
1878;DHT22;939;51.426;6.972;2023-07-28T12:26:36;22.30;99.90
1878;DHT22;939;51.426;6.972;2023-07-28T12:29:03;22.60;99.90
1878;DHT22;939;51.426;6.972;2023-07-28T12:31:30;22.50;99.90
1878;DHT22;939;51.426;6.972;2023-07-28T12:33:57;22.70;99.90
1878;DHT22;939;51.426;6.972;2023-07-28T12:36:26;22.80;99.90
1878;DHT22;939;51.426;6.972;2023-07-28T12:38:59;22.80;99.90
1878;DHT22;939;51.426;6.972;2023-07-28T12:41:26;23.00;99.90
1878;DHT22;939;51.426;6.972;2023-07-28T12:43:53;23.00;99.90
1878;DHT22;939;51.426;6.972;2023-07-28T12:46:22;23.00;99.90
1878;DHT22;939;51.426;6.972;2023-07-28T12:48:49;23.00;99.90
1878;DHT22;939;51.426;6.972;2023-07-28T12:51:16;23.00;99.90
1878;DHT22;939;51.426;6.972;2023-07-28T12:53:47;23.00;99.90
1878;DHT22;939;51.426;6.972;2023-07-28T12:56:20;23.00;99.90
1878;DHT22;939;51.426;6.972;2023-07-28T12:58:52;23.10;99.90
1878;DHT22;939;51.426;6.972;2023-07-28T13:01:37;23.00;99.90
1878;DHT22;939;51.426;6.972;2023-07-28T13:04:21;22.90;99.90
1878;DHT22;939;51.426;6.972;2023-07-28T13:07:06;23.00;99.90
1878;DHT22;939;51.426;6.972;2023-07-28T13:13:24;22.90;99.90
1878;DHT22;939;51.426;6.972;2023-07-28T13:16:14;23.00;99.90
1878;DHT22;939;51.426;6.972;2023-07-28T13:18:42;23.00;99.90
1878;DHT22;939;51.426;6.972;2023-07-28T13:21:34;23.00;99.90
1878;DHT22;939;51.426;6.972;2023-07-28T13:28:53;23.10;99.90
1878;DHT22;939;51.426;6.972;2023-07-28T13:34:04;23.20;99.90
1878;DHT22;939;51.426;6.972;2023-07-28T13:36:45;23.30;99.90
1878;DHT22;939;51.426;6.972;2023-07-28T13:39:35;23.40;99.90
1878;DHT22;939;51.426;6.972;2023-07-28T13:42:39;23.30;99.90
1878;DHT22;939;51.426;6.972;2023-07-28T13:52:25;22.90;99.90
1878;DHT22;939;51.426;6.972;2023-07-28T13:58:10;22.60;99.90
1878;DHT22;939;51.426;6.972;2023-07-28T14:01:24;22.40;99.90
1878;DHT22;939;51.426;6.972;2023-07-28T14:04:08;22.40;99.90
1878;DHT22;939;51.426;6.972;2023-07-28T14:06:35;22.40;99.90
1878;DHT22;939;51.426;6.972;2023-07-28T14:09:11;22.40;99.90
1878;DHT22;939;51.426;6.972;2023-07-28T14:11:39;22.50;99.90
1878;DHT22;939;51.426;6.972;2023-07-28T14:16:58;22.70;99.90
1878;DHT22;939;51.426;6.972;2023-07-28T14:19:29;22.80;99.90
1878;DHT22;939;51.426;6.972;2023-07-28T14:23:07;22.70;99.90
1878;DHT22;939;51.426;6.972;2023-07-28T14:28:55;22.70;99.90
1878;DHT22;939;51.426;6.972;2023-07-28T14:31:37;22.70;99.90
1878;DHT22;939;51.426;6.972;2023-07-28T14:34:07;22.50;99.90
1878;DHT22;939;51.426;6.972;2023-07-28T14:36:42;22.40;99.90
1878;DHT22;939;51.426;6.972;2023-07-28T14:39:24;22.40;99.90
1878;DHT22;939;51.426;6.972;2023-07-28T14:42:22;22.40;99.90
1878;DHT22;939;51.426;6.972;2023-07-28T14:45:15;22.30;99.90
1878;DHT22;939;51.426;6.972;2023-07-28T14:47:48;22.40;99.90
1878;DHT22;939;51.426;6.972;2023-07-28T14:50:19;22.30;99.90
1878;DHT22;939;51.426;6.972;2023-07-28T14:53:27;22.10;99.90
1878;DHT22;939;51.426;6.972;2023-07-28T14:59:05;21.90;99.90
1878;DHT22;939;51.426;6.972;2023-07-28T15:09:09;21.90;99.90
1878;DHT22;939;51.426;6.972;2023-07-28T15:14:58;21.90;99.90
1878;DHT22;939;51.426;6.972;2023-07-28T15:17:32;22.00;99.90
1878;DHT22;939;51.426;6.972;2023-07-28T16:19:52;21.70;99.90
1878;DHT22;939;51.426;6.972;2023-07-28T16:22:19;21.70;99.90
1878;DHT22;939;51.426;6.972;2023-07-28T16:24:49;21.70;99.90
1878;DHT22;939;51.426;6.972;2023-07-28T16:27:16;21.70;99.90
1878;DHT22;939;51.426;6.972;2023-07-28T16:29:43;21.60;99.90
1878;DHT22;939;51.426;6.972;2023-07-28T16:32:28;21.50;99.90
1878;DHT22;939;51.426;6.972;2023-07-28T16:35:02;21.40;99.90
1878;DHT22;939;51.426;6.972;2023-07-28T16:37:29;21.40;99.90
1878;DHT22;939;51.426;6.972;2023-07-28T16:39:56;21.50;99.90
1878;DHT22;939;51.426;6.972;2023-07-28T16:42:32;21.50;99.90
1878;DHT22;939;51.426;6.972;2023-07-28T16:45:33;21.60;99.90
1878;DHT22;939;51.426;6.972;2023-07-28T16:48:10;21.60;99.90
1878;DHT22;939;51.426;6.972;2023-07-28T16:50:42;21.60;99.90
1878;DHT22;939;51.426;6.972;2023-07-28T16:53:24;21.70;99.90
1878;DHT22;939;51.426;6.972;2023-07-28T16:56:14;21.80;99.90
1878;DHT22;939;51.426;6.972;2023-07-28T16:58:51;21.80;99.90
1878;DHT22;939;51.426;6.972;2023-07-28T17:04:20;21.90;99.90
1878;DHT22;939;51.426;6.972;2023-07-28T17:05:52;21.90;99.90
1878;DHT22;939;51.426;6.972;2023-07-28T17:08:20;21.80;99.90
1878;DHT22;939;51.426;6.972;2023-07-28T17:10:48;21.80;99.90
1878;DHT22;939;51.426;6.972;2023-07-28T17:13:21;21.80;99.90
1878;DHT22;939;51.426;6.972;2023-07-28T17:16:20;21.80;99.90
1878;DHT22;939;51.426;6.972;2023-07-28T17:19:04;21.70;99.90
1878;DHT22;939;51.426;6.972;2023-07-28T17:25:43;21.80;99.90
1878;DHT22;939;51.426;6.972;2023-07-28T17:28:30;21.80;99.90
1878;DHT22;939;51.426;6.972;2023-07-28T17:31:23;21.80;99.90
1878;DHT22;939;51.426;6.972;2023-07-28T17:33:59;21.80;99.90
1878;DHT22;939;51.426;6.972;2023-07-28T17:36:31;21.70;99.90
1878;DHT22;939;51.426;6.972;2023-07-28T17:41:57;21.70;99.90
1878;DHT22;939;51.426;6.972;2023-07-28T17:44:37;21.70;99.90
1878;DHT22;939;51.426;6.972;2023-07-28T17:47:11;21.70;99.90
1878;DHT22;939;51.426;6.972;2023-07-28T17:49:47;21.70;99.90
1878;DHT22;939;51.426;6.972;2023-07-28T17:52:42;21.70;99.90
1878;DHT22;939;51.426;6.972;2023-07-28T17:55:15;21.70;99.90
1878;DHT22;939;51.426;6.972;2023-07-28T17:57:44;21.70;99.90
1878;DHT22;939;51.426;6.972;2023-07-28T18:00:24;21.70;99.90
1878;DHT22;939;51.426;6.972;2023-07-28T18:02:51;21.60;99.90
1878;DHT22;939;51.426;6.972;2023-07-28T18:05:18;21.60;99.90
1878;DHT22;939;51.426;6.972;2023-07-28T18:07:45;21.60;99.90
1878;DHT22;939;51.426;6.972;2023-07-28T18:10:15;21.50;99.90
1878;DHT22;939;51.426;6.972;2023-07-28T18:12:43;21.50;99.90
1878;DHT22;939;51.426;6.972;2023-07-28T18:15:13;21.50;99.90
1878;DHT22;939;51.426;6.972;2023-07-28T18:30:58;21.40;99.90
1878;DHT22;939;51.426;6.972;2023-07-28T18:34:20;21.40;99.90
1878;DHT22;939;51.426;6.972;2023-07-28T18:37:08;21.40;99.90
1878;DHT22;939;51.426;6.972;2023-07-28T18:46:13;21.10;99.90
1878;DHT22;939;51.426;6.972;2023-07-28T18:48:51;21.10;99.90
1878;DHT22;939;51.426;6.972;2023-07-28T20:12:22;20.40;99.90
1878;DHT22;939;51.426;6.972;2023-07-28T20:15:24;20.30;99.90
1878;DHT22;939;51.426;6.972;2023-07-28T20:18:20;20.30;99.90
1878;DHT22;939;51.426;6.972;2023-07-28T20:21:17;20.30;99.90
1878;DHT22;939;51.426;6.972;2023-07-28T20:27:17;20.10;99.90
1878;DHT22;939;51.426;6.972;2023-07-28T20:32:56;20.20;99.90
1878;DHT22;939;51.426;6.972;2023-07-28T20:36:00;20.20;99.90
1878;DHT22;939;51.426;6.972;2023-07-28T20:38:32;20.20;99.90
1878;DHT22;939;51.426;6.972;2023-07-28T20:44:48;20.20;99.90
1878;DHT22;939;51.426;6.972;2023-07-28T20:51:20;20.30;99.90
1878;DHT22;939;51.426;6.972;2023-07-28T20:54:39;20.20;99.90
1878;DHT22;939;51.426;6.972;2023-07-28T21:01:37;20.20;99.90
1878;DHT22;939;51.426;6.972;2023-07-28T21:12:26;20.20;99.90
1878;DHT22;939;51.426;6.972;2023-07-28T21:21:58;20.30;99.90
1878;DHT22;939;51.426;6.972;2023-07-28T21:31:33;20.40;99.90
1878;DHT22;939;51.426;6.972;2023-07-28T21:34:30;20.30;99.90
1878;DHT22;939;51.426;6.972;2023-07-28T21:37:25;20.30;99.90
1878;DHT22;939;51.426;6.972;2023-07-28T21:43:37;20.30;99.90
1878;DHT22;939;51.426;6.972;2023-07-28T21:46:20;20.30;99.90
1878;DHT22;939;51.426;6.972;2023-07-28T21:49:38;20.30;99.90
1878;DHT22;939;51.426;6.972;2023-07-28T21:59:28;20.20;99.90
1878;DHT22;939;51.426;6.972;2023-07-28T22:02:16;20.30;99.90
1878;DHT22;939;51.426;6.972;2023-07-28T22:11:47;20.20;99.90
1878;DHT22;939;51.426;6.972;2023-07-28T22:14:14;20.20;99.90
1878;DHT22;939;51.426;6.972;2023-07-28T22:17:06;20.20;99.90
1878;DHT22;939;51.426;6.972;2023-07-28T22:19:34;20.20;99.90
1878;DHT22;939;51.426;6.972;2023-07-28T22:22:19;20.20;99.90
1878;DHT22;939;51.426;6.972;2023-07-28T22:24:47;20.20;99.90
1878;DHT22;939;51.426;6.972;2023-07-28T22:30:30;20.20;99.90
1878;DHT22;939;51.426;6.972;2023-07-28T22:33:23;20.20;99.90
1878;DHT22;939;51.426;6.972;2023-07-28T22:36:34;20.20;99.90
1878;DHT22;939;51.426;6.972;2023-07-28T22:39:34;20.20;99.90
1878;DHT22;939;51.426;6.972;2023-07-28T23:26:33;20.00;99.90
1878;DHT22;939;51.426;6.972;2023-07-28T23:32:54;20.00;99.90
1878;DHT22;939;51.426;6.972;2023-07-28T23:35:37;19.90;99.90
1878;DHT22;939;51.426;6.972;2023-07-28T23:48:26;19.80;99.90
1878;DHT22;939;51.426;6.972;2023-07-28T23:51:09;19.70;99.90
1878;DHT22;939;51.426;6.972;2023-07-28T23:54:17;19.70;99.90
1878;DHT22;939;51.426;6.972;2023-07-28T23:56:48;19.80;99.90
1878;DHT22;939;51.426;6.972;2023-07-28T23:59:34;19.70;99.90
